Arlington, Minnesota
Current Conditions -  °F | °C
As of 10:34 AM on Tuesday 21 Oct 2014 (Local Time) from KGYL Reporting Station
Clear Clear  
Wind Chill: 51°   Ceiling: Unl
Heat Index: 51°   Visibility: 10mi
Dew Point: 43°   Wind: 13mph
Humidity: 73%   Direction: 110°ESE
Pressure: 30.16"   Gusts: NA
Location:  44.61°N, 94.08°W
Report Text: KGYL 211534Z AUTO 11011KT 10SM CLR 11/06 A3016 RMK AO2 T01070061
Loading
Personal Weather Stations






























Interactive Weather Map New forecast layout! Learn more

10-Day Weather Forecast

Advertisements
Track Severe Weather on mobile